Skip Navigation LinksHome page > Tools > METAR decoder Skip Navigation Links

METAR decoder

Settings

METAR

Chicago O'Hare Intl, Chicago

For information only: do not use for flight planning or navigation.
Latest weather
Observation time Saturday, April 18, 2015 1:51 AM CDT
Local time Saturday, April 18, 2015 2:12 AM CDT
Flight conditions Visual Meteorological Conditions
Winds
Wind direction Southwest (220°)
Wind speed 5 mph
Visibility 10 mi.
Sky condition
Ceiling 7,000 ft. broken clouds
Cloud layer broken clouds 7,000 ft.
Temperature 64°F
Dewpoint 46°F
Altimeter 30.00 in.Hg
Derived measurements
Relative humidity 52%
Density altitude 1060 ft.
Sea-level pressure 29.99 in.Hg
Remarks
Automated weather observing station with precipitation discriminator.
METAR KORD 180651Z 22004KT 10SM BKN070 18/08 A3000 RMK AO2 SLP156 T01780078

InnerDrive.Weather 4.0.5567.0 Release CLR 4.0.30319.34014
Copyright ©2015 Inner Drive Technology. All rights reserved. Portions Copyright ©1986-2015 David Braverman.

Find weather

Site navigation


Skip Navigation Links

Place info

Page info

PayPal - The safer, easier way to pay online!

Return home.

Copyright ©2015 Inner Drive Technology. Purveyors of fine, hand-crafted computer software. Page printed 2015-04-18T07:12:11 UTC.